Address 0x6a3b705314b89b8fcbb33644c4b7a6afe153c126 4

 

Overview

Balance:
0.161634239369530044 ETH

ETH Value:
$271.94 (@ $1,682.41/ETH)

Token:
Txn Hash Method
Block
From
To
Value [Txn Fee]
0x0b3f5c04c085d079f4f694d4d1f6f3680c84b416336cbdb1643fcdd1bfbff6580x05615a75580531842023-02-04 21:35:581 hr ago0x6a3b705314b89b8fcbb33644c4b7a6afe153c126OUT 0xbcbd2568d54a44925542318972d3f46696e4ace30 ETH0.00015525
0x84dacc66996e8739c7f0fd50c95de476d9cda7f1801157fc03c3899227e4c28f0x05615a75580167012023-02-04 18:09:474 hrs 27 mins ago0x6a3b705314b89b8fcbb33644c4b7a6afe153c126OUT 0xbcbd2568d54a44925542318972d3f46696e4ace30 ETH0.00011532
0x89f253317670250163b0aae38a4c487629173c66d8df348ef0f5f6c9c1bcf3670x84f4de11579827662023-02-04 15:19:227 hrs 17 mins ago0x6a3b705314b89b8fcbb33644c4b7a6afe153c126OUT 0xbcbd2568d54a44925542318972d3f46696e4ace30 ETH0.00046139
0x80ca2e56d23b0ccc8b10b8b3110d3f4754a014954b03b432623667f6e0c391e00x84f4de11579717052023-02-04 14:25:488 hrs 11 mins ago0x6a3b705314b89b8fcbb33644c4b7a6afe153c126OUT 0xbcbd2568d54a44925542318972d3f46696e4ace30 ETH0.00016902
0x388858a77a7c302d595b2bd5fc3c917d0abdc6081ef20715847771be2483cb1d0x84f4de11579717032023-02-04 14:25:478 hrs 11 mins ago0x6a3b705314b89b8fcbb33644c4b7a6afe153c126OUT 0xbcbd2568d54a44925542318972d3f46696e4ace30 ETH0.00017661
0xfd4550ec3daa351669961a27f5c1b1e72a0331bc65c704cbadf0910b7d41fce30x84f4de11579714132023-02-04 14:24:288 hrs 12 mins ago0x6a3b705314b89b8fcbb33644c4b7a6afe153c126OUT 0xbcbd2568d54a44925542318972d3f46696e4ace30 ETH0.00028585
0xefcde96da1b312cbe70785338dd22e6c478498860b19420b0b837478f50ee5a70x84f4de11579702842023-02-04 14:19:088 hrs 17 mins ago0x6a3b705314b89b8fcbb33644c4b7a6afe153c126OUT 0xbcbd2568d54a44925542318972d3f46696e4ace30 ETH0.00008444
0x74723253b76ae07cc9b8d643b3d9c8002b5bfe76cc907d382e7baa4692c7b7b70x05615a75579542622023-02-04 13:04:069 hrs 32 mins ago0x6a3b705314b89b8fcbb33644c4b7a6afe153c126OUT 0xbcbd2568d54a44925542318972d3f46696e4ace30 ETH0.00011684
0xc6bd90b6a99d445a5f965dadd6f6b4541478d5ae55f5d2410e523eda154b8dba0x05615a75579491762023-02-04 12:39:249 hrs 57 mins ago0x6a3b705314b89b8fcbb33644c4b7a6afe153c126OUT 0xbcbd2568d54a44925542318972d3f46696e4ace30 ETH0.00015886
0x47aa27d3f6e48a855f7fd6adbe4bae150b76c42b0694e8b2ded07a9d8b47dd4b0x05615a75578937682023-02-04 8:00:0614 hrs 36 mins ago0x6a3b705314b89b8fcbb33644c4b7a6afe153c126OUT 0xbcbd2568d54a44925542318972d3f46696e4ace30 ETH0.0002142
0xbff9332fcbe0c5d77729f8a911b524a5a6becac04c372679072bcc84bd2f8ca60x05615a75578818432023-02-04 6:54:4215 hrs 42 mins ago0x6a3b705314b89b8fcbb33644c4b7a6afe153c126OUT 0xbcbd2568d54a44925542318972d3f46696e4ace30 ETH0.00022014
0x6e573e71fe44afcaae0e7b1692c6fbae82bbeaba6054e8030aeaf43b7d34d2e50x05615a75578716222023-02-04 5:53:4716 hrs 43 mins ago0x6a3b705314b89b8fcbb33644c4b7a6afe153c126OUT 0xbcbd2568d54a44925542318972d3f46696e4ace30 ETH0.00016863
0x1602075c477be7d9f5f79b99aeea861b88b660ad52db9efc4fd6631b1c3bdc880x05615a75578682442023-02-04 5:32:4117 hrs 4 mins ago0x6a3b705314b89b8fcbb33644c4b7a6afe153c126OUT 0xbcbd2568d54a44925542318972d3f46696e4ace30 ETH0.00019031
0x76bab8c817fb8a1bc0657bbb8fe5d9e56fcfcfbaaa042e6dd5efc1fab9542f340x84f4de11578533102023-02-04 3:58:2018 hrs 38 mins ago0x6a3b705314b89b8fcbb33644c4b7a6afe153c126OUT 0xbcbd2568d54a44925542318972d3f46696e4ace30 ETH0.00014946
0x91e0f0bce73fab54e427392cd3eb5b8e6db76c26ef88767993bdf9ce14973e8a0x84f4de11578444432023-02-04 3:06:0219 hrs 30 mins ago0x6a3b705314b89b8fcbb33644c4b7a6afe153c126OUT 0xbcbd2568d54a44925542318972d3f46696e4ace30 ETH0.00012795
0xd4e79eecccddaf8e884c3b32c633a075e03fe79233df04937b2998811d0446f70x84f4de11578352782023-02-04 2:15:0620 hrs 21 mins ago0x6a3b705314b89b8fcbb33644c4b7a6afe153c126OUT 0xbcbd2568d54a44925542318972d3f46696e4ace30 ETH0.00045188
0x3c073129a695796fcfe10492bde7ad9ad5fa5e91098e0f2a5b6e65337a33a2460x84f4de11578349462023-02-04 2:13:1620 hrs 23 mins ago0x6a3b705314b89b8fcbb33644c4b7a6afe153c126OUT 0xbcbd2568d54a44925542318972d3f46696e4ace30 ETH0.00014151
0x51bfd306103ff8e1ade77350255580a47f8beff8e5d0acf1fe5934715fd378ce0x84f4de11578334012023-02-04 2:04:2520 hrs 32 mins ago0x6a3b705314b89b8fcbb33644c4b7a6afe153c126OUT 0xbcbd2568d54a44925542318972d3f46696e4ace30 ETH0.00016634
0x1243e47339a4ff3bc0627d2d0390a998046846018ed9286745e5d5eaff8fd71f0x84f4de11578327582023-02-04 2:00:3120 hrs 36 mins ago0x6a3b705314b89b8fcbb33644c4b7a6afe153c126OUT 0xbcbd2568d54a44925542318972d3f46696e4ace30 ETH0.00009056
0x11a0e30e7d329e5d1a3b91cb384780d92058059b0cbe2b3265f31f4938914c1d0x05615a75577962462023-02-03 22:45:2523 hrs 51 mins ago0x6a3b705314b89b8fcbb33644c4b7a6afe153c126OUT 0xbcbd2568d54a44925542318972d3f46696e4ace30 ETH0.00023611
0x9a5ce455d3e17e037d519c4ffea43f2b6e7f23d310dd8d53a39aad764f62c65b0x84f4de11577680122023-02-03 20:02:191 day 2 hrs ago0x6a3b705314b89b8fcbb33644c4b7a6afe153c126OUT 0xbcbd2568d54a44925542318972d3f46696e4ace30 ETH0.00023114
0xd1884dddefcf014af53d77be83c9161730b5e93ea6594e6827ebbcd08bffeed20x05615a75577274222023-02-03 16:32:101 day 6 hrs ago0x6a3b705314b89b8fcbb33644c4b7a6afe153c126OUT 0xbcbd2568d54a44925542318972d3f46696e4ace30 ETH0.0002804
0xccfc14f10d9488a00f9bb205af9b1d12de822466944e602242c8a807446f24880x05615a75577274142023-02-03 16:32:081 day 6 hrs ago0x6a3b705314b89b8fcbb33644c4b7a6afe153c126OUT 0xbcbd2568d54a44925542318972d3f46696e4ace30 ETH0.00020631
0x19210be61983a2f34e2f1e13a2da3fc066c4ce8b9f623413d48eb0925f8e7b4c0x05615a75577274132023-02-03 16:32:081 day 6 hrs ago0x6a3b705314b89b8fcbb33644c4b7a6afe153c126OUT 0xbcbd2568d54a44925542318972d3f46696e4ace30 ETH0.00019975
0x8452391fecd353227a33f518bfa705e68925966145c23c04e07244d605bd7d220x05615a75577273812023-02-03 16:31:591 day 6 hrs ago0x6a3b705314b89b8fcbb33644c4b7a6afe153c126OUT 0xbcbd2568d54a44925542318972d3f46696e4ace30 ETH0.0002052
[ Download CSV Export 
Latest 6 internal transactions
Parent Txn Hash Block From To Value
0x5847d13e23a131814e6ab05b5b95bba2d97b243b30f982e8849a367d5c636a0180462072022-03-17 9:47:05324 days 12 hrs ago 0x6a3b705314b89b8fcbb33644c4b7a6afe153c126 0x1efb3f88bc88f03fd1804a5c53b7141bbef5ded80 ETH
0xec40c9fa971866233a8b2a58a45e8cc6ae5793299563dda9b5061584d06646d779839582022-03-16 9:27:52325 days 13 hrs ago 0x6a3b705314b89b8fcbb33644c4b7a6afe153c126 0x1efb3f88bc88f03fd1804a5c53b7141bbef5ded80 ETH
0x499c2e3da66d332e63233c27530f88f62cbad5f764f202986c0daf4715a8080679834262022-03-16 9:13:52325 days 13 hrs ago 0x6a3b705314b89b8fcbb33644c4b7a6afe153c126 0x1efb3f88bc88f03fd1804a5c53b7141bbef5ded80 ETH
0xab0c04c3fc1cc18475d2adad4671882f1c3df8f8f451cfd388e43740001b49cc79834012022-03-16 9:12:39325 days 13 hrs ago 0x6a3b705314b89b8fcbb33644c4b7a6afe153c126 0x1efb3f88bc88f03fd1804a5c53b7141bbef5ded80 ETH
0x1503de3bea52466404e7f24a65f9188279022a5d649bb1a578fc4b598c93b8d079832582022-03-16 9:09:33325 days 13 hrs ago 0x6a3b705314b89b8fcbb33644c4b7a6afe153c126 0x1efb3f88bc88f03fd1804a5c53b7141bbef5ded80 ETH
0x44a66c705d98b7f863996014bbb00045286f61109f533364de64f669664f89ee79809632022-03-16 8:21:27325 days 14 hrs ago 0x6a3b705314b89b8fcbb33644c4b7a6afe153c126 Uniswap V3: Router 20.001 ETH
[ Download CSV Export 
Loading

Contract Name:
0 ETH

Compiler Version
0

Optimization Enabled:
0 ETH

Other Settings:
-NA-
Block Transaction Gas Used Reward
Age Block Fee Address BC Fee Address Voting Power Jailed Incoming
Block Uncle Number Difficulty Gas Used Reward
Loading
Make sure to use the "Vote Down" button for any spammy posts, and the "Vote Up" for interesting conversations.